Liberty Island — HPUY — position and weather

sailwx.info

Track history (hours):
 
Tides and Currents Weather Stations Pressure Air Temp Water Temp Dewpoint Dewpoint Depression Visibility Wind Speed Wind Dir Waves Ship Positions

Liberty Island

Last reported at 2015-Aug-30 05:29 UTC. Time now 2015-Sep-02 12:52 UTC.
Position N 35°04' W 006°47'.

Length 178 m; draft 6.7 m.

Type: Cargo ship. MMSI: 355886000.

Date/timePositionNaut miles runAvg speedWind from/ knotsBaromVisibWave heightAir tempDewpointWater temp
2015-Aug-30 05:29N 35°04' W 006°47'27411.4
2015-Aug-29 05:30N 36°51' W 001°35'2812.9
2015-Aug-29 03:21N 37°09' W 001°09'1113.2
2015-Aug-29 02:33N 37°16' W 000°59'1313.2
2015-Aug-29 01:33N 37°24' W 000°46'1313.2
2015-Aug-29 00:33N 37°34' W 000°34'1313.3
2015-Aug-28 23:33N 37°44' W 000°24'1313.2
2015-Aug-28 22:33N 37°56' W 000°16'1413.5
2015-Aug-28 21:34N 38°07' W 000°06'1313.5
2015-Aug-28 20:33N 38°18' E 000°04'1312.7
2015-Aug-28 19:32N 38°29' E 000°12'1312.6
2015-Aug-28 18:31N 38°40' E 000°20'2412.3
2015-Aug-28 16:32N 38°60' E 000°38'1312.6
2015-Aug-28 15:30N 39°11' E 000°48'1212.5
2015-Aug-28 14:33N 39°20' E 000°57'1312.4
2015-Aug-28 13:29N 39°31' E 001°07'1212.5
2015-Aug-28 12:33N 39°40' E 001°16'1312.6
2015-Aug-28 11:33N 39°51' E 001°25'1312.6
2015-Aug-28 10:33N 40°01' E 001°35'1212.5
2015-Aug-28 09:33N 40°11' E 001°44'1212.4
2015-Aug-28 08:33N 40°21' E 001°54'1312.7
2015-Aug-28 07:33N 40°32' E 002°03'1312.8
2015-Aug-28 06:33N 40°42' E 002°14'1312.6
2015-Aug-28 05:33N 40°52' E 002°23'1312.8
2015-Aug-28 04:33N 41°03' E 002°32'1312.7
2015-Aug-28 03:33N 41°13' E 002°42'1312.4
2015-Aug-28 02:33N 41°23' E 002°52'1312.7
2015-Aug-28 01:32N 41°34' E 003°02'1312.5
2015-Aug-28 00:27N 41°45' E 003°12'1212.3
2015-Aug-27 23:28N 41°55' E 003°21'1112.4
2015-Aug-27 22:33N 42°06' E 003°25'1612.0
2015-Aug-27 21:13N 42°21' E 003°30'1012.1
2015-Aug-27 20:26N 42°30' E 003°34'1112.1
2015-Aug-27 19:33N 42°41' E 003°38'1412.2
2015-Aug-27 18:26N 42°54' E 003°42'2312.4
2015-Aug-27 16:32N 43°17' E 003°50'9 8.6
2015-Aug-27 15:30N 43°24' E 003°43'0 0.1
2015-Aug-27 11:30N 43°24' E 003°43'0 0.0
2015-Aug-27 10:30N 43°24' E 003°43'0 0.0
2015-Aug-27 09:24N 43°24' E 003°43'0 0.0
2015-Aug-27 08:30N 43°24' E 003°43'0 0.0
2015-Aug-27 06:24N 43°24' E 003°43'0 0.0
2015-Aug-26 18:06N 43°24' E 003°43'0 0.0
2015-Aug-26 17:30N 43°24' E 003°43'0 0.0
2015-Aug-26 16:15N 43°24' E 003°43'0 0.0
2015-Aug-26 14:30N 43°24' E 003°43'0 0.0
2015-Aug-26 13:21N 43°24' E 003°43'0 0.0
2015-Aug-26 12:24N 43°24' E 003°43'0 0.0
2015-Aug-26 11:30N 43°24' E 003°43'0 0.0
2015-Aug-26 09:27N 43°24' E 003°43'0 0.0
2015-Aug-26 08:21N 43°24' E 003°43'0 0.0
2015-Aug-26 07:33N 43°24' E 003°43'0 0.0
2015-Aug-26 03:09N 43°24' E 003°43'0 0.0
2015-Aug-26 01:30N 43°24' E 003°43'0 0.0
2015-Aug-25 20:33N 43°24' E 003°43'0 0.0
2015-Aug-25 18:12N 43°24' E 003°43'  
2015-Aug-23 01:06N 43°24' E 003°43'0 0.0
2015-Aug-22 22:12N 43°24' E 003°43'0 0.0
2015-Aug-22 21:30N 43°24' E 003°43'0 0.0
2015-Aug-22 20:30N 43°24' E 003°43'0 0.0
2015-Aug-22 19:33N 43°24' E 003°43'0 0.0
2015-Aug-22 18:30N 43°24' E 003°43'0 0.0
2015-Aug-22 16:18N 43°24' E 003°43'0 0.0
2015-Aug-22 10:33N 43°24' E 003°43'2 0.4
2015-Aug-22 04:13N 43°22' E 003°44'0 0.0
2015-Aug-22 03:31N 43°22' E 003°44'1 0.2
2015-Aug-21 22:33N 43°22' E 003°45'9 8.7
2015-Aug-21 21:33N 43°14' E 003°51'1712.6
2015-Aug-21 20:11N 42°58' E 003°44'1012.7
2015-Aug-21 19:24N 42°48' E 003°41'1012.1
2015-Aug-21 18:33N 42°38' E 003°37'9912.3
2015-Aug-21 10:33N 41°09' E 002°40'1211.8
2015-Aug-21 09:33N 40°60' E 002°32'1212.3
2015-Aug-21 08:33N 40°50' E 002°22'1312.8
2015-Aug-21 07:33N 40°39' E 002°13'1312.6
2015-Aug-21 06:33N 40°29' E 002°03'1312.7
2015-Aug-21 05:33N 40°18' E 001°54'1312.6
2015-Aug-21 04:33N 40°08' E 001°45'1312.7
2015-Aug-21 03:33N 39°57' E 001°36'1312.6
2015-Aug-21 02:33N 39°47' E 001°26'1312.6
2015-Aug-21 01:33N 39°37' E 001°16'1512.7
2015-Aug-21 00:24N 39°24' E 001°07'1412.3
2015-Aug-20 23:17N 39°14' E 000°55'912.8
2015-Aug-20 22:33N 39°06' E 000°49'6512.7
2015-Aug-20 17:25N 38°12' E 000°02'1111.9
2015-Aug-20 16:30N 38°03' W 000°06'1111.6
2015-Aug-20 15:33N 37°53' W 000°14'1211.7
2015-Aug-20 14:33N 37°44' W 000°22'1211.7
2015-Aug-20 13:33N 37°34' W 000°30'1211.8
2015-Aug-20 12:34N 37°26' W 000°41'1211.6
2015-Aug-20 11:33N 37°18' W 000°52'1211.6
2015-Aug-20 10:31N 37°10' W 001°03'  
Track history (hours):
 
Tides and Currents Weather Stations Pressure Air Temp Water Temp Dewpoint Dewpoint Depression Visibility Wind Speed Wind Dir Waves Ship Positions

Liberty Island

Last reported at 2015-Aug-30 05:29 UTC. Time now 2015-Sep-02 12:52 UTC.
Position N 35°04' W 006°47'.

Length 178 m; draft 6.7 m.

Type: Cargo ship. MMSI: 355886000.

Date/timePositionNaut miles runAvg speedWind from/ knotsBaromVisibWave heightAir tempDewpointWater temp
2015-Aug-30 05:29N 35°04' W 006°47'27411.4
2015-Aug-29 05:30N 36°51' W 001°35'2812.9
2015-Aug-29 03:21N 37°09' W 001°09'1113.2
2015-Aug-29 02:33N 37°16' W 000°59'1313.2
2015-Aug-29 01:33N 37°24' W 000°46'1313.2
2015-Aug-29 00:33N 37°34' W 000°34'1313.3
2015-Aug-28 23:33N 37°44' W 000°24'1313.2
2015-Aug-28 22:33N 37°56' W 000°16'1413.5
2015-Aug-28 21:34N 38°07' W 000°06'1313.5
2015-Aug-28 20:33N 38°18' E 000°04'1312.7
2015-Aug-28 19:32N 38°29' E 000°12'1312.6
2015-Aug-28 18:31N 38°40' E 000°20'2412.3
2015-Aug-28 16:32N 38°60' E 000°38'1312.6
2015-Aug-28 15:30N 39°11' E 000°48'1212.5
2015-Aug-28 14:33N 39°20' E 000°57'1312.4
2015-Aug-28 13:29N 39°31' E 001°07'1212.5
2015-Aug-28 12:33N 39°40' E 001°16'1312.6
2015-Aug-28 11:33N 39°51' E 001°25'1312.6
2015-Aug-28 10:33N 40°01' E 001°35'1212.5
2015-Aug-28 09:33N 40°11' E 001°44'1212.4
2015-Aug-28 08:33N 40°21' E 001°54'1312.7
2015-Aug-28 07:33N 40°32' E 002°03'1312.8
2015-Aug-28 06:33N 40°42' E 002°14'1312.6
2015-Aug-28 05:33N 40°52' E 002°23'1312.8
2015-Aug-28 04:33N 41°03' E 002°32'1312.7
2015-Aug-28 03:33N 41°13' E 002°42'1312.4
2015-Aug-28 02:33N 41°23' E 002°52'1312.7
2015-Aug-28 01:32N 41°34' E 003°02'1312.5
2015-Aug-28 00:27N 41°45' E 003°12'1212.3
2015-Aug-27 23:28N 41°55' E 003°21'1112.4
2015-Aug-27 22:33N 42°06' E 003°25'1612.0
2015-Aug-27 21:13N 42°21' E 003°30'1012.1
2015-Aug-27 20:26N 42°30' E 003°34'1112.1
2015-Aug-27 19:33N 42°41' E 003°38'1412.2
2015-Aug-27 18:26N 42°54' E 003°42'2312.4
2015-Aug-27 16:32N 43°17' E 003°50'9 8.6
2015-Aug-27 15:30N 43°24' E 003°43'0 0.1
2015-Aug-27 11:30N 43°24' E 003°43'0 0.0
2015-Aug-27 10:30N 43°24' E 003°43'0 0.0
2015-Aug-27 09:24N 43°24' E 003°43'0 0.0
2015-Aug-27 08:30N 43°24' E 003°43'0 0.0
2015-Aug-27 06:24N 43°24' E 003°43'0 0.0
2015-Aug-26 18:06N 43°24' E 003°43'0 0.0
2015-Aug-26 17:30N 43°24' E 003°43'0 0.0
2015-Aug-26 16:15N 43°24' E 003°43'0 0.0
2015-Aug-26 14:30N 43°24' E 003°43'0 0.0
2015-Aug-26 13:21N 43°24' E 003°43'0 0.0
2015-Aug-26 12:24N 43°24' E 003°43'0 0.0
2015-Aug-26 11:30N 43°24' E 003°43'0 0.0
2015-Aug-26 09:27N 43°24' E 003°43'0 0.0
2015-Aug-26 08:21N 43°24' E 003°43'0 0.0
2015-Aug-26 07:33N 43°24' E 003°43'0 0.0
2015-Aug-26 03:09N 43°24' E 003°43'0 0.0
2015-Aug-26 01:30N 43°24' E 003°43'0 0.0
2015-Aug-25 20:33N 43°24' E 003°43'0 0.0
2015-Aug-25 18:12N 43°24' E 003°43'  
2015-Aug-23 01:06N 43°24' E 003°43'0 0.0
2015-Aug-22 22:12N 43°24' E 003°43'0 0.0
2015-Aug-22 21:30N 43°24' E 003°43'0 0.0
2015-Aug-22 20:30N 43°24' E 003°43'0 0.0
2015-Aug-22 19:33N 43°24' E 003°43'0 0.0
2015-Aug-22 18:30N 43°24' E 003°43'0 0.0
2015-Aug-22 16:18N 43°24' E 003°43'0 0.0
2015-Aug-22 10:33N 43°24' E 003°43'2 0.4
2015-Aug-22 04:13N 43°22' E 003°44'0 0.0
2015-Aug-22 03:31N 43°22' E 003°44'1 0.2
2015-Aug-21 22:33N 43°22' E 003°45'9 8.7
2015-Aug-21 21:33N 43°14' E 003°51'1712.6
2015-Aug-21 20:11N 42°58' E 003°44'1012.7
2015-Aug-21 19:24N 42°48' E 003°41'1012.1
2015-Aug-21 18:33N 42°38' E 003°37'9912.3
2015-Aug-21 10:33N 41°09' E 002°40'1211.8
2015-Aug-21 09:33N 40°60' E 002°32'1212.3
2015-Aug-21 08:33N 40°50' E 002°22'1312.8
2015-Aug-21 07:33N 40°39' E 002°13'1312.6
2015-Aug-21 06:33N 40°29' E 002°03'1312.7
2015-Aug-21 05:33N 40°18' E 001°54'1312.6
2015-Aug-21 04:33N 40°08' E 001°45'1312.7
2015-Aug-21 03:33N 39°57' E 001°36'1312.6
2015-Aug-21 02:33N 39°47' E 001°26'1312.6
2015-Aug-21 01:33N 39°37' E 001°16'1512.7
2015-Aug-21 00:24N 39°24' E 001°07'1412.3
2015-Aug-20 23:17N 39°14' E 000°55'912.8
2015-Aug-20 22:33N 39°06' E 000°49'6512.7
2015-Aug-20 17:25N 38°12' E 000°02'1111.9
2015-Aug-20 16:30N 38°03' W 000°06'1111.6
2015-Aug-20 15:33N 37°53' W 000°14'1211.7
2015-Aug-20 14:33N 37°44' W 000°22'1211.7
2015-Aug-20 13:33N 37°34' W 000°30'1211.8
2015-Aug-20 12:34N 37°26' W 000°41'1211.6
2015-Aug-20 11:33N 37°18' W 000°52'1211.6
2015-Aug-20 10:31N 37°10' W 001°03'  

Dump ship's entire track history